Skippack, Pennsylvania
Current Conditions -  °F | °C
As of 2:54 AM on Monday 24 Nov 2014 (Local Time) from KPTW Reporting Station
Moderate Rain Moderate Rain  
Wind Chill: 56°   Ceiling: 700
Heat Index: 56°   Visibility: 3mi
Dew Point: 55°   Wind: 6mph
Humidity: 97%   Direction: NA
Pressure: 29.71"   Gusts: NA
Location:  40.22°N, 75.4°W
Report Text: KPTW 240754Z AUTO VRB05KT 3SM RA BR BKN007 OVC015 13/13 A2971 RMK AO2 PRESFR SLP058 P0020 T01330128
Loading
Personal Weather Stations






























Interactive Weather Map New forecast layout! Learn more

10-Day Weather Forecast

Advertisements
Track Severe Weather on mobile